createdAt,value
2023-02-05T00:00:24.576Z,99.90
2023-02-05T00:05:27.190Z,99.90
2023-02-05T00:10:29.948Z,99.90
2023-02-05T00:15:32.889Z,99.90
2023-02-05T00:20:36.407Z,99.90
2023-02-05T00:25:38.973Z,99.90
2023-02-05T00:30:42.045Z,99.90
2023-02-05T00:35:44.885Z,99.90
2023-02-05T00:40:47.415Z,99.90
2023-02-05T00:45:49.973Z,99.90
2023-02-05T00:50:53.440Z,99.90
2023-02-05T00:55:56.312Z,99.90
2023-02-05T01:00:58.876Z,99.90
2023-02-05T01:06:03.300Z,99.90
2023-02-05T01:11:11.458Z,99.90
2023-02-05T01:16:14.194Z,99.90
2023-02-05T01:21:16.912Z,99.90
2023-02-05T01:26:19.547Z,99.90
2023-02-05T01:31:22.503Z,99.90
2023-02-05T01:36:25.300Z,99.90
2023-02-05T01:41:27.790Z,99.90
2023-02-05T01:46:31.746Z,99.90
2023-02-05T01:51:37.503Z,99.90
2023-02-05T01:56:48.662Z,99.90
2023-02-05T02:01:52.028Z,99.90
2023-02-05T02:06:54.570Z,99.90
2023-02-05T02:11:58.659Z,99.90
2023-02-05T02:17:03.278Z,99.90
2023-02-05T02:22:43.286Z,99.90
2023-02-05T02:27:54.057Z,99.90
2023-02-05T02:33:21.636Z,99.90
2023-02-05T02:38:35.017Z,99.90
2023-02-05T02:44:04.958Z,99.90
2023-02-05T02:49:14.664Z,99.90
2023-02-05T02:54:20.987Z,99.90
2023-02-05T02:59:30.778Z,99.90
2023-02-05T03:04:44.366Z,99.90
2023-02-05T03:10:28.996Z,99.90
2023-02-05T03:15:32.473Z,99.90
2023-02-05T03:21:04.030Z,99.90
2023-02-05T03:26:19.802Z,99.90
2023-02-05T03:31:36.153Z,99.90
2023-02-05T03:36:58.970Z,99.90
2023-02-05T03:42:17.548Z,99.90
2023-02-05T03:48:08.667Z,99.90
2023-02-05T03:53:37.223Z,99.90
2023-02-05T03:58:46.373Z,99.90
2023-02-05T04:03:51.357Z,99.90
2023-02-05T04:08:54.561Z,99.90
2023-02-05T04:13:59.378Z,99.90
2023-02-05T04:19:02.275Z,99.90
2023-02-05T04:24:06.231Z,99.90
2023-02-05T04:29:09.173Z,99.90
2023-02-05T04:34:17.927Z,99.90
2023-02-05T04:39:20.610Z,99.70
2023-02-05T04:44:23.913Z,99.90
2023-02-05T04:49:26.534Z,99.90
2023-02-05T04:54:29.267Z,99.90
2023-02-05T04:59:31.911Z,99.90
2023-02-05T05:04:34.518Z,99.90
2023-02-05T05:09:37.730Z,99.90
2023-02-05T05:14:40.367Z,99.90
2023-02-05T05:19:42.838Z,99.90
2023-02-05T05:24:45.381Z,99.90
2023-02-05T05:29:47.891Z,99.90
2023-02-05T05:34:50.692Z,99.90
2023-02-05T05:40:12.027Z,99.90
2023-02-05T05:45:14.615Z,99.90
2023-02-05T05:50:17.493Z,99.90
2023-02-05T05:55:19.934Z,99.90
2023-02-05T06:00:22.686Z,99.90
2023-02-05T06:05:25.241Z,99.90
2023-02-05T06:10:28.169Z,99.90
2023-02-05T06:15:30.724Z,99.90
2023-02-05T06:20:34.304Z,99.90
2023-02-05T06:25:37.154Z,99.90
2023-02-05T06:30:39.802Z,99.90
2023-02-05T06:35:42.867Z,99.90
2023-02-05T06:40:46.829Z,99.90
2023-02-05T06:45:49.628Z,99.90
2023-02-05T06:50:52.334Z,99.90
2023-02-05T06:55:58.904Z,99.90
2023-02-05T07:01:02.688Z,99.90
2023-02-05T07:06:06.337Z,99.90
2023-02-05T07:11:08.982Z,99.90
2023-02-05T07:16:11.723Z,99.90
2023-02-05T07:21:17.777Z,99.90
2023-02-05T07:26:20.532Z,99.90
2023-02-05T07:31:23.142Z,99.90
2023-02-05T07:36:25.691Z,99.90
2023-02-05T07:41:28.129Z,98.40
2023-02-05T07:46:30.846Z,99.80
2023-02-05T07:51:35.361Z,98.80
2023-02-05T07:56:38.048Z,99.90
2023-02-05T08:01:40.524Z,99.90
2023-02-05T08:06:43.262Z,99.90
2023-02-05T08:11:45.794Z,96.00
2023-02-05T08:16:48.387Z,97.60
2023-02-05T08:21:51.551Z,99.90
2023-02-05T08:26:54.097Z,99.90
2023-02-05T08:31:56.730Z,99.90
2023-02-05T08:36:59.973Z,99.90
2023-02-05T08:42:02.690Z,99.90
2023-02-05T08:47:05.251Z,99.90
2023-02-05T08:52:07.675Z,99.90
2023-02-05T08:57:10.425Z,95.10
2023-02-05T09:02:15.453Z,98.00
2023-02-05T09:07:18.421Z,99.90
2023-02-05T09:12:20.975Z,98.70
2023-02-05T09:17:23.561Z,93.80
2023-02-05T09:22:26.229Z,98.00
2023-02-05T09:27:28.756Z,98.90
2023-02-05T09:32:31.266Z,97.00
2023-02-05T09:37:33.765Z,99.60
2023-02-05T09:42:45.381Z,97.20
2023-02-05T09:48:07.737Z,99.50
2023-02-05T09:53:16.833Z,99.90
2023-02-05T09:58:27.614Z,91.80
2023-02-05T10:03:51.695Z,94.80
2023-02-05T10:09:13.446Z,93.20
2023-02-05T10:14:32.169Z,96.40
2023-02-05T10:19:40.547Z,98.60
2023-02-05T10:25:13.020Z,92.50
2023-02-05T10:30:56.998Z,93.00
2023-02-05T10:36:04.023Z,90.90
2023-02-05T10:41:40.267Z,91.40
2023-02-05T10:46:51.714Z,84.80
2023-02-05T10:51:55.145Z,86.00
2023-02-05T10:56:58.569Z,87.50
2023-02-05T11:02:08.338Z,87.30
2023-02-05T11:07:38.865Z,86.80
2023-02-05T11:12:45.040Z,84.60
2023-02-05T11:17:57.416Z,89.40
2023-02-05T11:23:07.170Z,71.60
2023-02-05T11:28:24.629Z,82.10
2023-02-05T11:33:29.751Z,83.90
2023-02-05T11:39:06.702Z,90.90
2023-02-05T11:44:21.771Z,91.50
2023-02-05T11:49:37.803Z,74.10
2023-02-05T11:54:46.203Z,87.30
2023-02-05T12:00:09.884Z,79.90
2023-02-05T12:05:12.318Z,79.00
2023-02-05T12:10:17.585Z,83.00
2023-02-05T12:15:26.835Z,76.30
2023-02-05T12:20:35.171Z,80.00
2023-02-05T12:25:58.958Z,91.30
2023-02-05T12:31:16.476Z,74.70
2023-02-05T12:36:36.980Z,73.30
2023-02-05T12:41:51.444Z,74.90
2023-02-05T12:47:24.793Z,76.00
2023-02-05T12:52:38.776Z,81.60
2023-02-05T12:58:03.909Z,82.40
2023-02-05T13:03:30.731Z,87.90
2023-02-05T13:08:48.367Z,73.30
2023-02-05T13:13:53.743Z,78.30
2023-02-05T13:19:08.413Z,83.00
2023-02-05T13:24:44.673Z,82.90
2023-02-05T13:29:51.768Z,89.30
2023-02-05T13:34:56.724Z,79.10
2023-02-05T13:40:15.755Z,85.70
2023-02-05T13:45:35.957Z,89.90
2023-02-05T13:51:02.901Z,92.90
2023-02-05T13:56:14.747Z,66.20
2023-02-05T14:01:49.044Z,78.80
2023-02-05T14:07:13.491Z,85.40
2023-02-05T14:12:24.232Z,92.40
2023-02-05T14:17:32.418Z,91.50
2023-02-05T14:22:45.256Z,88.40
2023-02-05T14:27:49.488Z,91.90
2023-02-05T14:32:52.157Z,92.20
2023-02-05T14:38:02.670Z,92.20
2023-02-05T14:43:36.159Z,88.40
2023-02-05T14:48:43.234Z,70.30
2023-02-05T14:53:58.151Z,73.90
2023-02-05T14:59:18.754Z,83.50
2023-02-05T15:04:33.388Z,79.60
2023-02-05T15:10:04.141Z,77.40
2023-02-05T15:20:36.105Z,91.70
2023-02-05T15:25:44.123Z,90.60
2023-02-05T15:31:10.262Z,99.90
2023-02-05T15:36:21.364Z,92.20
2023-02-05T15:41:25.435Z,96.20
2023-02-05T15:46:31.145Z,96.50
2023-02-05T15:56:42.302Z,99.60
2023-02-05T16:01:50.069Z,99.90
2023-02-05T16:06:52.715Z,99.90
2023-02-05T16:11:55.855Z,99.90
2023-02-05T16:17:16.512Z,99.90
2023-02-05T16:22:52.774Z,99.90
2023-02-05T16:27:57.782Z,99.90
2023-02-05T16:33:04.343Z,99.90
2023-02-05T16:38:18.593Z,99.90
2023-02-05T16:43:27.113Z,99.90
2023-02-05T16:53:37.145Z,99.90
2023-02-05T16:58:51.596Z,99.90
2023-02-05T17:03:55.576Z,99.90
2023-02-05T17:08:58.112Z,99.90
2023-02-05T17:24:49.751Z,99.90
2023-02-05T17:29:52.579Z,99.90
2023-02-05T17:34:55.372Z,99.90
2023-02-05T17:45:00.737Z,99.90
2023-02-05T17:50:03.460Z,99.90
2023-02-05T17:55:06.846Z,99.90
2023-02-05T18:00:19.133Z,99.90
2023-02-05T18:05:22.477Z,99.90
2023-02-05T18:10:28.300Z,99.90
2023-02-05T18:15:32.599Z,99.90
2023-02-05T18:20:35.919Z,99.90
2023-02-05T18:25:39.665Z,99.90
2023-02-05T18:30:42.934Z,99.90
2023-02-05T18:35:45.499Z,99.90
2023-02-05T18:40:47.999Z,99.90
2023-02-05T18:45:50.726Z,99.90
2023-02-05T18:50:53.239Z,99.90
2023-02-05T18:56:07.827Z,99.90
2023-02-05T19:01:14.808Z,99.90
2023-02-05T19:06:19.355Z,99.90
2023-02-05T19:11:24.300Z,99.90
2023-02-05T19:16:27.720Z,99.90
2023-02-05T19:21:31.861Z,99.90
2023-02-05T19:26:36.938Z,99.90
2023-02-05T19:31:39.486Z,99.90
2023-02-05T19:36:42.688Z,99.90
2023-02-05T19:41:45.846Z,99.90
2023-02-05T19:46:48.950Z,99.90
2023-02-05T19:51:55.247Z,99.90
2023-02-05T19:56:57.987Z,99.90
2023-02-05T20:02:00.586Z,99.90
2023-02-05T20:07:04.303Z,99.90
2023-02-05T20:12:07.088Z,99.90
2023-02-05T20:17:12.069Z,99.90
2023-02-05T20:22:14.751Z,99.90
2023-02-05T20:27:17.363Z,99.90
2023-02-05T20:32:19.920Z,99.90
2023-02-05T20:37:23.177Z,99.90
2023-02-05T20:42:25.717Z,99.90
2023-02-05T20:47:28.316Z,99.90
2023-02-05T20:52:30.803Z,99.90
2023-02-05T20:57:33.258Z,99.90
2023-02-05T21:02:36.979Z,99.90
2023-02-05T21:07:39.507Z,99.90
2023-02-05T21:12:41.988Z,99.90
2023-02-05T21:17:44.609Z,99.90
2023-02-05T21:22:47.339Z,99.90
2023-02-05T21:27:50.930Z,99.90
2023-02-05T21:32:53.830Z,99.90
2023-02-05T21:37:56.494Z,99.90
2023-02-05T21:43:00.525Z,99.90
2023-02-05T21:48:03.191Z,99.90
2023-02-05T21:53:06.193Z,99.90
2023-02-05T21:58:08.758Z,99.90
2023-02-05T22:03:11.330Z,99.90
2023-02-05T22:08:13.926Z,99.90
2023-02-05T22:13:16.615Z,99.90
2023-02-05T22:18:19.326Z,99.90
2023-02-05T22:23:21.896Z,99.90
2023-02-05T22:28:24.542Z,99.90
2023-02-05T22:33:28.731Z,99.90
2023-02-05T22:38:32.866Z,99.90
2023-02-05T22:43:35.635Z,99.90
2023-02-05T22:48:40.280Z,99.90
2023-02-05T22:53:43.082Z,99.90
2023-02-05T22:58:47.675Z,99.90
2023-02-05T23:03:52.121Z,99.90
2023-02-05T23:08:59.336Z,99.90
2023-02-05T23:14:03.769Z,99.90
2023-02-05T23:19:09.866Z,99.90
2023-02-05T23:24:13.278Z,99.90
2023-02-05T23:29:17.362Z,99.90
2023-02-05T23:34:20.001Z,99.90
2023-02-05T23:39:22.642Z,99.90
2023-02-05T23:44:25.428Z,99.90
2023-02-05T23:49:27.957Z,99.90
2023-02-05T23:54:30.388Z,99.90
2023-02-05T23:59:32.886Z,99.90
